Current Weather

Central Park

Central Park, New York (KNYC)

Report from: Sunday, May 19, 2024 4:51 AM EDT
Current time: Sunday, May 19, 2024 5:21 AM EDT

Nearby weather – Weather history – Daily summaries
Weather forecast

Temperature15.6°C (60.1°F)
Dew point11.7°C (53.1°F)
Winds 4 kts (2.1 m/s, 4.6 mph) North-Northeast (20°)
Visibility10 mi. (16.1 km)
Clouds Ceiling: Overcast 2,000 ft. (610 m)
Altimeter30.00 in.Hg (1016 mB)
Relative humidity78 %
Density altitude208 ft. (63 m)
Sea-level pressure101.5 kPa (1015 mB, 29.97 in.Hg)
Remarks Fully automated report
System requires maintenance
Automated weather observing station with precipitation discriminator
Pressure rising more quickly
Flight conditions Marginal Visual Meteorological Conditions
Raw dataKNYC 190851Z AUTO 02004KT 10SM OVC020 16/12 A3000 RMK AO2 SLP149 T01560117 53004 $
An error has occurred. This application may no longer respond until reloaded. Reload 🗙